Time;durP1;ratioP1;P1;durP2;ratioP2;P2;SDS_P1;SDS_P2;PMS_P1;PMS_P2;Temp;Humidity;BMP_temperature;BMP_pressure;BME280_temperature;BME280_humidity;BME280_pressure;Samples;Min_cycle;Max_cycle;Signal;HPM_P1;HPM_P2
2022/04/28 00:00:28;;;;;;;11.18;4.07;;;8.40;99.90;;;;;;5075643;28;20474;-61
2022/04/28 00:02:57;;;;;;;6.63;2.95;;;8.30;99.90;;;;;;5076163;28;20056;-61
2022/04/28 00:05:24;;;;;;;11.55;3.03;;;8.30;99.90;;;;;;5093449;28;20079;-62
2022/04/28 00:07:51;;;;;;;7.35;2.90;;;8.30;99.90;;;;;;5094096;28;20441;-62
2022/04/28 00:10:18;;;;;;;8.65;2.65;;;8.40;99.90;;;;;;5075728;28;20083;-62
2022/04/28 00:12:45;;;;;;;9.18;2.63;;;8.30;99.90;;;;;;5075125;28;20098;-61
2022/04/28 00:15:12;;;;;;;9.88;2.90;;;8.30;99.90;;;;;;5093790;28;20094;-62
2022/04/28 00:17:39;;;;;;;7.57;2.80;;;8.30;99.90;;;;;;5093895;28;20083;-61
2022/04/28 00:20:09;;;;;;;11.60;3.53;;;8.30;99.90;;;;;;5075309;28;20083;-61
2022/04/28 00:22:36;;;;;;;10.93;3.38;;;8.40;99.90;;;;;;5075939;28;20052;-61
2022/04/28 00:25:03;;;;;;;11.85;4.35;;;8.30;99.90;;;;;;5094027;28;20095;-62
2022/04/28 00:27:30;;;;;;;6.13;3.30;;;8.30;99.90;;;;;;5093136;28;20048;-62
2022/04/28 00:29:57;;;;;;;6.68;3.08;;;8.30;99.90;;;;;;5075249;28;20056;-61
2022/04/28 00:32:24;;;;;;;6.20;2.88;;;8.30;99.90;;;;;;5075929;28;20091;-61
2022/04/28 00:34:51;;;;;;;10.10;2.90;;;8.30;99.90;;;;;;5092986;28;20131;-61
2022/04/28 00:37:19;;;;;;;6.88;2.95;;;8.30;99.90;;;;;;5093760;28;20087;-62
2022/04/28 00:39:46;;;;;;;7.22;2.67;;;8.30;99.90;;;;;;5075497;28;20087;-62
2022/04/28 00:42:15;;;;;;;5.22;2.42;;;8.30;99.90;;;;;;5093053;28;20554;-62
2022/04/28 00:44:42;;;;;;;7.63;3.20;;;8.30;99.90;;;;;;5074990;28;20131;-62
2022/04/28 00:47:09;;;;;;;6.50;2.70;;;8.30;99.90;;;;;;5093384;28;20247;-61
2022/04/28 00:52:23;;;;;;;8.60;3.97;;;8.30;99.90;;;;;;5093339;28;20129;-60
2022/04/28 00:54:53;;;;;;;8.68;4.05;;;8.40;99.90;;;;;;5092455;28;20138;-61
2022/04/28 00:57:21;;;;;;;14.20;3.80;;;8.40;99.90;;;;;;5093377;28;20044;-61
2022/04/28 00:59:49;;;;;;;9.25;3.45;;;8.30;99.90;;;;;;5075102;28;20087;-61
2022/04/28 01:02:18;;;;;;;11.57;4.18;;;8.30;99.90;;;;;;5092573;28;20091;-61
2022/04/28 01:04:45;;;;;;;11.70;3.88;;;8.30;99.90;;;;;;5093167;28;20147;-61
2022/04/28 01:07:12;;;;;;;6.78;3.70;;;8.30;99.90;;;;;;5092968;28;20044;-62
2022/04/28 01:09:41;;;;;;;9.55;3.63;;;8.30;99.90;;;;;;5092424;28;20135;-61
2022/04/28 01:12:14;;;;;;;17.60;4.38;;;8.30;99.90;;;;;;5093053;28;20044;-62
2022/04/28 01:14:41;;;;;;;7.57;2.80;;;8.30;99.90;;;;;;5075174;28;20052;-61
2022/04/28 01:17:08;;;;;;;9.75;3.72;;;8.30;99.90;;;;;;5074508;28;20051;-62
2022/04/28 01:19:35;;;;;;;13.23;3.90;;;8.30;99.90;;;;;;5092904;28;20093;-61
2022/04/28 01:22:04;;;;;;;8.13;3.80;;;8.30;99.90;;;;;;5093046;28;20123;-61
2022/04/28 01:24:31;;;;;;;14.27;4.30;;;8.30;99.90;;;;;;5074055;28;20080;-61
2022/04/28 01:27:00;;;;;;;10.25;3.78;;;8.30;99.90;;;;;;5093058;28;20110;-61
2022/04/28 01:29:27;;;;;;;6.82;3.50;;;8.30;99.90;;;;;;5074506;28;20131;-61
2022/04/28 01:31:54;;;;;;;9.20;3.95;;;8.20;99.90;;;;;;5074590;28;20452;-61
2022/04/28 01:34:21;;;;;;;7.53;3.55;;;8.30;99.90;;;;;;5092977;28;20079;-61
2022/04/28 01:36:47;;;;;;;6.25;2.97;;;8.30;99.90;;;;;;5092340;28;20049;-61
2022/04/28 01:39:16;;;;;;;5.97;2.90;;;8.30;99.90;;;;;;5092712;28;20132;-61
2022/04/28 01:41:43;;;;;;;5.70;2.70;;;8.30;99.90;;;;;;5074915;28;20395;-60
2022/04/28 01:44:10;;;;;;;6.20;3.05;;;8.30;99.90;;;;;;5073924;28;20148;-61
2022/04/28 01:46:37;;;;;;;9.98;4.22;;;8.30;99.90;;;;;;5092804;28;20087;-61
2022/04/28 01:49:04;;;;;;;9.00;4.13;;;8.30;99.90;;;;;;5074638;28;20059;-61
2022/04/28 01:57:01;;;;;;;8.05;3.40;;;8.30;99.90;;;;;;5092774;28;20527;-60
2022/04/28 01:59:27;;;;;;;5.60;3.30;;;8.30;99.90;;;;;;5074015;28;20530;-60
2022/04/28 02:01:54;;;;;;;8.52;3.33;;;8.30;99.90;;;;;;5092341;28;20060;-61
2022/04/28 02:04:21;;;;;;;6.07;3.15;;;8.30;99.90;;;;;;5074352;28;20097;-61
2022/04/28 02:06:48;;;;;;;10.45;3.80;;;8.30;99.90;;;;;;5094313;28;20137;-61
2022/04/28 02:09:15;;;;;;;9.05;3.97;;;8.30;99.90;;;;;;5096305;28;20538;-60
2022/04/28 02:11:43;;;;;;;8.70;4.32;;;8.30;99.90;;;;;;5078196;28;20079;-60
2022/04/28 02:14:10;;;;;;;10.18;3.85;;;8.30;99.90;;;;;;5078101;28;20094;-62
2022/04/28 02:16:36;;;;;;;9.13;3.67;;;8.30;99.90;;;;;;5078307;28;20083;-61
2022/04/28 02:19:04;;;;;;;6.75;3.67;;;8.30;99.90;;;;;;5077309;28;20127;-61
2022/04/28 02:21:30;;;;;;;10.32;3.78;;;8.30;99.90;;;;;;5096483;28;20048;-62
2022/04/28 02:23:57;;;;;;;8.32;4.00;;;8.30;99.90;;;;;;5096378;28;20075;-61
2022/04/28 02:26:24;;;;;;;9.32;3.55;;;8.20;99.90;;;;;;5095467;28;20543;-61
2022/04/28 02:28:52;;;;;;;9.75;3.80;;;8.20;99.90;;;;;;5095969;28;20126;-61
2022/04/28 02:31:19;;;;;;;7.93;3.63;;;8.20;99.90;;;;;;5096046;28;20080;-61
2022/04/28 02:33:45;;;;;;;14.40;3.72;;;8.20;99.90;;;;;;5095340;28;20052;-61
2022/04/28 02:36:13;;;;;;;8.48;3.85;;;8.20;99.90;;;;;;5095859;28;20092;-61
2022/04/28 02:38:41;;;;;;;6.55;3.60;;;8.20;99.90;;;;;;5077846;28;20538;-61
2022/04/28 02:41:08;;;;;;;7.25;3.03;;;8.20;99.90;;;;;;5095352;28;20130;-61
2022/04/28 02:43:35;;;;;;;15.48;4.28;;;8.30;99.90;;;;;;5077608;28;20139;-61
2022/04/28 02:46:03;;;;;;;7.80;3.78;;;8.20;99.90;;;;;;5077541;28;20084;-61
2022/04/28 02:48:30;;;;;;;9.20;3.70;;;8.30;99.90;;;;;;5076757;28;20135;-61
2022/04/28 02:50:57;;;;;;;9.48;3.70;;;8.30;99.90;;;;;;5095479;28;20121;-62
2022/04/28 02:53:24;;;;;;;11.25;3.53;;;8.20;99.90;;;;;;5095673;28;20129;-62
2022/04/28 02:55:51;;;;;;;7.07;3.38;;;8.20;99.90;;;;;;5094996;28;20044;-61
2022/04/28 02:58:17;;;;;;;11.02;3.78;;;8.20;99.90;;;;;;5095256;28;20067;-61
2022/04/28 03:00:44;;;;;;;12.38;3.60;;;8.20;99.90;;;;;;5095219;28;20083;-59
2022/04/28 03:03:12;;;;;;;9.70;3.83;;;8.20;99.90;;;;;;5076636;28;20539;-62
2022/04/28 03:11:05;;;;;;;6.25;3.53;;;8.20;99.90;;;;;;5095381;28;20020;-60
2022/04/28 03:13:33;;;;;;;15.82;3.97;;;8.10;99.90;;;;;;5077260;28;20055;-61
2022/04/28 03:16:00;;;;;;;12.95;4.05;;;8.10;99.90;;;;;;5076640;28;20135;-61
2022/04/28 03:18:28;;;;;;;8.38;4.13;;;8.10;99.90;;;;;;5076994;28;20075;-61
2022/04/28 03:20:56;;;;;;;9.70;3.92;;;8.10;99.90;;;;;;5076945;28;20094;-61
2022/04/28 03:23:23;;;;;;;11.65;3.72;;;8.10;99.90;;;;;;5076646;28;20404;-61
2022/04/28 03:25:51;;;;;;;9.30;4.18;;;8.10;99.90;;;;;;5095147;28;20062;-60
2022/04/28 03:28:19;;;;;;;15.23;4.78;;;8.10;99.90;;;;;;5094833;28;20426;-60
2022/04/28 03:30:46;;;;;;;8.35;4.53;;;8.10;99.90;;;;;;5076170;28;20526;-60
2022/04/28 03:33:13;;;;;;;11.20;4.45;;;8.10;99.90;;;;;;5077048;28;20062;-61
2022/04/28 03:35:41;;;;;;;7.63;4.13;;;8.00;99.90;;;;;;5076832;28;20130;-61
2022/04/28 03:38:09;;;;;;;8.98;4.13;;;8.00;99.90;;;;;;5076111;28;20135;-61
2022/04/28 03:40:36;;;;;;;11.48;3.95;;;8.00;99.90;;;;;;5077062;28;20056;-60
2022/04/28 03:43:05;;;;;;;10.70;4.68;;;8.00;99.90;;;;;;5094766;28;20131;-61
2022/04/28 03:45:32;;;;;;;12.32;4.72;;;8.00;99.90;;;;;;5076275;28;20060;-61
2022/04/28 03:47:58;;;;;;;7.20;3.97;;;8.00;99.90;;;;;;5094326;28;20127;-60
2022/04/28 03:50:28;;;;;;;8.95;4.63;;;8.10;99.90;;;;;;5075833;28;20447;-61
2022/04/28 03:52:57;;;;;;;7.67;4.40;;;8.10;99.90;;;;;;5076457;28;20048;-61
2022/04/28 03:55:23;;;;;;;6.53;3.90;;;8.10;99.90;;;;;;5094500;28;20139;-61
2022/04/28 03:57:51;;;;;;;9.05;4.43;;;8.20;99.90;;;;;;5075728;28;20106;-62
2022/04/28 04:00:18;;;;;;;9.45;4.32;;;8.20;99.90;;;;;;5094306;28;20052;-60
2022/04/28 04:02:45;;;;;;;9.05;4.55;;;8.20;99.90;;;;;;5075959;28;20572;-62
2022/04/28 04:05:12;;;;;;;6.93;4.32;;;8.20;99.90;;;;;;5075082;28;20076;-61
2022/04/28 04:07:39;;;;;;;5.95;4.30;;;8.20;99.90;;;;;;5075668;28;20131;-62
2022/04/28 04:10:09;;;;;;;13.40;4.57;;;8.20;99.90;;;;;;5076030;28;20101;-62
2022/04/28 04:12:37;;;;;;;7.93;4.60;;;8.20;99.90;;;;;;5075443;28;20146;-61
2022/04/28 04:15:05;;;;;;;7.72;5.18;;;8.20;99.90;;;;;;5093689;28;20164;-61
2022/04/28 04:17:39;;;;;;;8.27;4.22;;;8.20;99.90;;;;;;5093725;28;20044;-61
2022/04/28 04:20:07;;;;;;;10.88;4.93;;;8.20;99.90;;;;;;5093159;28;20044;-62
2022/04/28 04:22:34;;;;;;;8.90;4.65;;;8.30;99.90;;;;;;5093937;28;20090;-62
2022/04/28 04:25:01;;;;;;;5.70;4.05;;;8.30;99.90;;;;;;5093877;28;20128;-62
2022/04/28 04:27:29;;;;;;;11.15;4.30;;;8.30;99.90;;;;;;5074919;28;20058;-62
2022/04/28 04:29:56;;;;;;;9.80;4.75;;;8.30;99.90;;;;;;5075190;28;20083;-62
2022/04/28 04:32:25;;;;;;;8.45;4.13;;;8.30;99.90;;;;;;5075955;28;20431;-62
2022/04/28 04:34:53;;;;;;;10.95;4.60;;;8.40;99.90;;;;;;5075520;28;20153;-60
2022/04/28 04:37:21;;;;;;;11.15;4.38;;;8.40;99.90;;;;;;5093592;28;20079;-61
2022/04/28 04:39:49;;;;;;;11.23;5.10;;;8.50;99.90;;;;;;5093063;28;20082;-61
2022/04/28 04:42:16;;;;;;;11.23;4.95;;;8.50;99.90;;;;;;5093615;28;20044;-61
2022/04/28 04:44:44;;;;;;;14.05;5.85;;;8.50;99.90;;;;;;5075175;28;20059;-61
2022/04/28 04:47:11;;;;;;;11.18;5.63;;;8.60;99.90;;;;;;5092725;28;20522;-61
2022/04/28 04:49:38;;;;;;;9.45;4.50;;;8.60;99.90;;;;;;5075528;28;20063;-61
2022/04/28 04:52:05;;;;;;;10.88;4.47;;;8.60;99.90;;;;;;5075433;28;20156;-62
2022/04/28 04:54:32;;;;;;;8.65;4.72;;;8.60;99.90;;;;;;5092986;28;20054;-62
2022/04/28 04:56:59;;;;;;;7.93;4.15;;;8.60;99.90;;;;;;5075213;28;20083;-62
2022/04/28 04:59:26;;;;;;;9.98;4.18;;;8.60;99.90;;;;;;5092941;28;20127;-62
2022/04/28 05:01:54;;;;;;;9.00;4.00;;;8.50;99.90;;;;;;5092316;28;20059;-62
2022/04/28 05:04:21;;;;;;;7.85;3.72;;;8.50;99.90;;;;;;5093430;28;20143;-62
2022/04/28 05:06:47;;;;;;;9.30;4.10;;;8.40;99.90;;;;;;5075321;28;20086;-62
2022/04/28 05:09:15;;;;;;;12.18;3.72;;;8.40;99.90;;;;;;5074297;28;20127;-62
2022/04/28 05:11:42;;;;;;;19.60;5.32;;;8.30;99.90;;;;;;5075271;28;20048;-61
2022/04/28 05:14:08;;;;;;;8.13;3.42;;;8.30;99.90;;;;;;5093037;28;20078;-61
2022/04/28 05:16:35;;;;;;;11.63;3.85;;;8.30;99.90;;;;;;5074054;28;20094;-61
2022/04/28 05:19:04;;;;;;;11.10;4.00;;;8.30;99.90;;;;;;5092802;28;20075;-62
2022/04/28 05:21:30;;;;;;;7.47;3.50;;;8.30;99.90;;;;;;5075008;28;20543;-61
2022/04/28 05:23:57;;;;;;;8.50;4.28;;;8.30;99.90;;;;;;5092450;28;20474;-61
2022/04/28 05:26:24;;;;;;;11.27;4.03;;;8.30;99.90;;;;;;5093032;28;20305;-62
2022/04/28 05:28:51;;;;;;;13.95;3.90;;;8.30;99.90;;;;;;5092251;28;20040;-61
2022/04/28 05:31:18;;;;;;;10.15;3.88;;;8.30;99.90;;;;;;5092925;28;20131;-61
2022/04/28 05:33:45;;;;;;;9.30;2.97;;;8.30;99.90;;;;;;5093118;28;20127;-61
2022/04/28 05:36:15;;;;;;;6.70;3.15;;;8.30;99.90;;;;;;5092332;28;20058;-61
2022/04/28 05:38:43;;;;;;;13.83;4.43;;;8.40;99.90;;;;;;5092655;28;20071;-61
2022/04/28 05:41:10;;;;;;;9.70;3.92;;;8.40;99.90;;;;;;5093227;28;20131;-62
2022/04/28 05:46:23;;;;;;;11.40;3.58;;;8.40;99.90;;;;;;5094956;28;20048;-62
2022/04/28 05:48:50;;;;;;;8.32;3.47;;;8.40;99.90;;;;;;5094887;28;20487;-62
2022/04/28 05:51:19;;;;;;;6.90;3.05;;;8.30;99.90;;;;;;5095806;28;20091;-61
2022/04/28 05:53:46;;;;;;;9.13;3.25;;;8.40;99.90;;;;;;5077457;28;20546;-61
2022/04/28 05:56:12;;;;;;;6.28;3.38;;;8.40;99.90;;;;;;5077063;28;20062;-61
2022/04/28 05:58:39;;;;;;;8.48;2.90;;;8.50;99.90;;;;;;5080732;28;20097;-61
2022/04/28 06:01:06;;;;;;;7.70;2.80;;;8.60;99.90;;;;;;5061644;28;20163;-60
2022/04/28 06:03:34;;;;;;;6.93;3.40;;;8.60;99.90;;;;;;5081092;28;20137;-61
2022/04/28 06:06:01;;;;;;;6.85;3.60;;;8.80;99.90;;;;;;5081970;28;20084;-62
2022/04/28 06:08:29;;;;;;;8.13;3.45;;;8.80;99.90;;;;;;5082500;28;20477;-62
2022/04/28 06:10:57;;;;;;;7.95;3.50;;;8.90;99.90;;;;;;5066632;28;20389;-62
2022/04/28 06:13:24;;;;;;;7.03;3.45;;;9.00;99.90;;;;;;5068268;28;20169;-62
2022/04/28 06:15:50;;;;;;;6.32;2.88;;;9.20;99.90;;;;;;5083123;28;20400;-61
2022/04/28 06:18:18;;;;;;;7.63;3.10;;;9.50;99.90;;;;;;5082538;28;20087;-61
2022/04/28 06:20:45;;;;;;;6.10;3.00;;;10.00;99.90;;;;;;5082864;28;20440;-61
2022/04/28 06:23:12;;;;;;;11.10;3.20;;;10.40;99.90;;;;;;5082856;28;20081;-62
2022/04/28 06:25:40;;;;;;;7.43;3.25;;;10.80;99.90;;;;;;5063840;28;20044;-61
2022/04/28 06:28:09;;;;;;;8.75;3.92;;;11.30;99.90;;;;;;5078906;28;20048;-61
2022/04/28 06:30:36;;;;;;;11.88;3.38;;;11.80;99.90;;;;;;5066922;28;20059;-61
2022/04/28 06:33:03;;;;;;;9.75;2.75;;;12.20;99.90;;;;;;5063335;28;20080;-62
2022/04/28 06:35:33;;;;;;;10.13;2.72;;;12.80;99.90;;;;;;5064454;28;20053;-63
2022/04/28 06:38:00;;;;;;;7.75;3.03;;;13.20;99.90;;;;;;5076385;28;20163;-63
2022/04/28 06:40:28;;;;;;;9.48;3.28;;;13.80;99.90;;;;;;5081313;28;20138;-62
2022/04/28 06:42:56;;;;;;;7.22;2.83;;;14.20;99.90;;;;;;5062434;28;20087;-62
2022/04/28 06:45:23;;;;;;;10.63;2.85;;;14.70;99.90;;;;;;5080763;28;20072;-62
2022/04/28 06:47:50;;;;;;;5.30;1.92;;;15.20;99.90;;;;;;5061558;28;20480;-62
2022/04/28 06:50:17;;;;;;;8.25;2.70;;;15.60;99.90;;;;;;5061942;28;20137;-62
2022/04/28 06:52:44;;;;;;;5.43;2.22;;;16.00;99.90;;;;;;5078141;28;20048;-62
2022/04/28 06:55:11;;;;;;;7.90;1.92;;;16.00;99.20;;;;;;5060977;28;20060;-62
2022/04/28 06:57:39;;;;;;;8.65;2.38;;;16.20;99.00;;;;;;5074898;28;20084;-62
2022/04/28 07:00:09;;;;;;;5.03;1.80;;;16.20;97.30;;;;;;5062080;28;20079;-62
2022/04/28 07:02:36;;;;;;;5.00;1.70;;;16.40;97.00;;;;;;5079720;28;20148;-62
2022/04/28 07:05:04;;;;;;;4.90;1.63;;;16.00;97.00;;;;;;5082389;28;20048;-61
2022/04/28 07:07:30;;;;;;;11.45;2.55;;;15.30;97.40;;;;;;5077488;28;20075;-61
2022/04/28 07:09:57;;;;;;;5.05;1.80;;;14.70;97.80;;;;;;5061817;28;20045;-62
2022/04/28 07:12:24;;;;;;;9.35;1.85;;;15.10;98.00;;;;;;5078481;28;20048;-61
2022/04/28 07:14:51;;;;;;;5.90;2.00;;;15.20;97.00;;;;;;5082404;28;20515;-61
2022/04/28 07:17:19;;;;;;;13.55;2.72;;;15.00;97.30;;;;;;5078137;28;20556;-61
2022/04/28 07:19:46;;;;;;;9.52;2.30;;;14.40;97.40;;;;;;5061137;28;20048;-61
2022/04/28 07:22:12;;;;;;;6.10;2.35;;;13.80;98.40;;;;;;5079646;28;20091;-61
2022/04/28 07:24:39;;;;;;;6.88;2.00;;;13.90;98.80;;;;;;5062418;28;20048;-61
2022/04/28 07:27:06;;;;;;;12.35;2.72;;;14.90;98.20;;;;;;5061659;28;20056;-62
2022/04/28 07:29:33;;;;;;;5.93;2.08;;;15.70;97.00;;;;;;5080537;28;20105;-61
2022/04/28 07:32:00;;;;;;;7.00;1.73;;;16.30;96.30;;;;;;5057364;28;20048;-62
2022/04/28 07:34:29;;;;;;;11.18;2.78;;;16.30;95.70;;;;;;5078260;28;20219;-62
2022/04/28 07:36:56;;;;;;;8.18;1.98;;;16.90;95.20;;;;;;5077429;28;20482;-62
2022/04/28 07:39:22;;;;;;;5.97;1.95;;;17.70;94.50;;;;;;5082415;28;20140;-62
2022/04/28 07:41:49;;;;;;;4.57;1.80;;;18.30;93.10;;;;;;5076734;28;20052;-63
2022/04/28 07:44:16;;;;;;;4.13;1.95;;;18.60;92.10;;;;;;5062360;28;20141;-62
2022/04/28 07:46:43;;;;;;;8.35;1.88;;;18.80;90.60;;;;;;5078299;28;20084;-62
2022/04/28 07:49:10;;;;;;;5.60;2.25;;;19.10;90.50;;;;;;5058304;28;20079;-63
2022/04/28 07:51:38;;;;;;;7.00;1.63;;;18.90;90.00;;;;;;5079028;28;20130;-62
2022/04/28 07:54:05;;;;;;;5.68;1.90;;;18.80;88.00;;;;;;5060164;28;20097;-61
2022/04/28 07:56:32;;;;;;;6.90;1.80;;;18.80;88.90;;;;;;5083889;28;20091;-62
2022/04/28 07:58:59;;;;;;;7.80;2.53;;;19.00;89.30;;;;;;5075356;28;20036;-63
2022/04/28 08:01:26;;;;;;;4.25;1.90;;;19.30;87.30;;;;;;5056346;28;20049;-63
2022/04/28 08:03:53;;;;;;;5.15;1.70;;;19.50;86.90;;;;;;5036014;28;20052;-62
2022/04/28 08:06:19;;;;;;;9.07;2.20;;;19.80;86.40;;;;;;5058060;28;20049;-63
2022/04/28 08:08:48;;;;;;;6.22;1.98;;;20.00;85.20;;;;;;5057773;28;20075;-62
2022/04/28 08:11:14;;;;;;;10.30;2.13;;;20.30;84.20;;;;;;5038676;28;20093;-62
2022/04/28 08:13:41;;;;;;;6.65;2.10;;;20.30;83.40;;;;;;5061669;28;20475;-62
2022/04/28 08:16:08;;;;;;;5.07;1.63;;;20.60;83.00;;;;;;5042015;28;20049;-63
2022/04/28 08:18:37;;;;;;;5.35;1.70;;;21.00;81.20;;;;;;5058600;28;20131;-63
2022/04/28 08:21:08;;;;;;;7.10;2.25;;;21.00;81.50;;;;;;5041072;28;20060;-63
2022/04/28 08:23:35;;;;;;;10.85;2.78;;;21.20;80.50;;;;;;5040727;28;20059;-63
2022/04/28 08:26:04;;;;;;;7.28;1.73;;;21.40;78.30;;;;;;5054049;28;20041;-63
2022/04/28 08:28:30;;;;;;;7.60;1.95;;;21.70;77.00;;;;;;5057090;28;20485;-63
2022/04/28 08:30:57;;;;;;;6.70;1.90;;;21.80;77.30;;;;;;5038123;28;20052;-63
2022/04/28 08:33:24;;;;;;;6.97;2.30;;;21.80;78.30;;;;;;5053381;28;20060;-62
2022/04/28 08:35:52;;;;;;;5.63;2.35;;;21.40;78.90;;;;;;5040323;28;20115;-63
2022/04/28 08:38:19;;;;;;;7.22;2.17;;;20.80;79.00;;;;;;5057648;28;20055;-63
2022/04/28 08:40:49;;;;;;;5.03;1.95;;;20.00;79.60;;;;;;5039250;28;20053;-62
2022/04/28 08:43:17;;;;;;;;;;;19.40;79.90;;;;;;5058931;28;20051;-62
2022/04/28 08:48:46;;;;;;;7.82;2.20;;;18.00;82.00;;;;;;5043381;28;20055;-62
2022/04/28 08:51:13;;;;;;;5.88;2.30;;;17.50;82.10;;;;;;5062683;28;20106;-63
2022/04/28 08:53:41;;;;;;;6.43;2.55;;;17.20;82.80;;;;;;5053189;28;20500;-63
2022/04/28 08:56:08;;;;;;;5.85;2.50;;;17.10;83.80;;;;;;5058392;28;20378;-62
2022/04/28 08:58:36;;;;;;;7.35;2.47;;;17.10;84.40;;;;;;5055986;28;20075;-63
2022/04/28 09:01:03;;;;;;;7.97;2.80;;;17.00;85.30;;;;;;5052713;28;20420;-61
2022/04/28 09:03:30;;;;;;;5.95;2.70;;;16.80;85.20;;;;;;5072311;28;20087;-61
2022/04/28 09:05:56;;;;;;;9.30;3.05;;;16.70;85.00;;;;;;5051219;28;20075;-63
2022/04/28 09:08:24;;;;;;;7.53;3.17;;;16.50;84.70;;;;;;5058940;28;20084;-63
2022/04/28 09:10:50;;;;;;;5.05;2.65;;;16.20;85.90;;;;;;5057483;28;20504;-61
2022/04/28 09:16:12;;;;;;;9.27;2.92;;;15.70;86.90;;;;;;5028672;28;20045;-61
2022/04/28 09:18:41;;;;;;;8.75;3.15;;;15.50;88.10;;;;;;5038907;28;20132;-62
2022/04/28 09:21:08;;;;;;;8.23;2.13;;;15.30;89.60;;;;;;5063627;28;20049;-61
2022/04/28 09:23:35;;;;;;;8.57;2.58;;;15.40;89.80;;;;;;5057255;28;20456;-61
2022/04/28 09:26:02;;;;;;;8.48;2.50;;;15.30;90.10;;;;;;5064458;28;20072;-62
2022/04/28 09:28:30;;;;;;;9.15;2.72;;;15.40;90.10;;;;;;5059142;28;20053;-62
2022/04/28 09:30:57;;;;;;;10.73;2.25;;;15.30;90.30;;;;;;5061831;28;20469;-62
2022/04/28 09:33:25;;;;;;;11.60;3.67;;;15.40;90.30;;;;;;5060331;28;20053;-61
2022/04/28 09:35:54;;;;;;;6.82;2.55;;;15.50;90.20;;;;;;5036390;28;20132;-62
2022/04/28 09:38:21;;;;;;;6.90;2.70;;;15.40;90.30;;;;;;5059584;28;20053;-62
2022/04/28 09:43:34;;;;;;;9.57;3.15;;;15.30;90.60;;;;;;5063680;28;20048;-61
2022/04/28 09:46:04;;;;;;;8.45;2.95;;;15.40;90.60;;;;;;5060470;28;20083;-61
2022/04/28 09:48:32;;;;;;;10.65;2.78;;;15.50;90.50;;;;;;5053122;28;20049;-61
2022/04/28 09:51:04;;;;;;;8.45;2.85;;;15.30;90.70;;;;;;5054353;28;20123;-62
2022/04/28 09:53:32;;;;;;;9.93;2.72;;;15.40;90.70;;;;;;5058482;28;20048;-62
2022/04/28 09:56:02;;;;;;;8.95;2.80;;;15.20;90.80;;;;;;5058474;28;20145;-62
2022/04/28 09:58:29;;;;;;;8.68;2.60;;;15.30;90.90;;;;;;5061883;28;20049;-62
2022/04/28 10:01:01;;;;;;;6.35;2.35;;;15.20;91.40;;;;;;5039494;28;20056;-61
2022/04/28 10:03:30;;;;;;;7.45;2.45;;;15.10;91.40;;;;;;5050250;28;20052;-60
2022/04/28 10:05:58;;;;;;;14.32;3.28;;;15.30;91.20;;;;;;5032259;28;20045;-61
2022/04/28 10:08:26;;;;;;;9.05;2.35;;;15.40;91.20;;;;;;5028154;28;20045;-62
2022/04/28 10:10:56;;;;;;;9.18;2.63;;;15.40;91.00;;;;;;5031583;28;20144;-61
2022/04/28 10:13:23;;;;;;;6.82;2.35;;;15.50;90.80;;;;;;5050013;28;20048;-61
2022/04/28 10:15:55;;;;;;;7.25;3.03;;;15.60;90.70;;;;;;5030044;28;20059;-62
2022/04/28 10:18:24;;;;;;;6.70;2.90;;;15.60;90.70;;;;;;5032115;28;20061;-61
2022/04/28 10:20:55;;;;;;;6.45;2.13;;;16.00;90.70;;;;;;5031326;28;20045;-61
2022/04/28 10:34:29;;;;;;;12.15;2.90;;;16.00;90.30;;;;;;5052915;28;20477;-61
2022/04/28 10:36:58;;;;;;;7.28;2.00;;;16.00;90.50;;;;;;5052499;28;20404;-61
2022/04/28 10:39:41;;;;;;;7.88;1.95;;;16.20;90.40;;;;;;5050082;28;20127;-61
2022/04/28 10:42:15;;;;;;;10.40;2.80;;;16.30;90.10;;;;;;5051034;28;20049;-61
2022/04/28 10:44:54;;;;;;;11.50;2.75;;;16.20;90.10;;;;;;5031191;28;20179;-62
2022/04/28 10:47:30;;;;;;;8.63;2.33;;;16.30;90.40;;;;;;5031020;28;20465;-61
2022/04/28 10:49:57;;;;;;;7.03;2.20;;;16.20;90.30;;;;;;5053296;28;20041;-62
2022/04/28 10:52:25;;;;;;;7.88;2.58;;;16.10;90.50;;;;;;5034669;28;20473;-61
2022/04/28 10:54:54;;;;;;;6.10;2.50;;;16.00;90.30;;;;;;5034827;28;20063;-61
2022/04/28 10:57:30;;;;;;;7.60;1.90;;;15.70;90.70;;;;;;5051241;28;20090;-62
2022/04/28 10:59:57;;;;;;;9.48;3.03;;;15.70;90.70;;;;;;5034119;28;20055;-62
2022/04/28 11:02:44;;;;;;;6.40;2.55;;;15.50;91.20;;;;;;5052107;28;20124;-62
2022/04/28 11:05:29;;;;;;;7.28;2.45;;;15.50;91.20;;;;;;5034346;28;20059;-62
2022/04/28 11:07:58;;;;;;;9.43;2.08;;;15.60;90.80;;;;;;5029871;28;20056;-62
2022/04/28 11:10:27;;;;;;;6.50;1.92;;;15.60;90.90;;;;;;5053172;28;20094;-61
2022/04/28 11:12:55;;;;;;;9.75;2.10;;;15.70;90.70;;;;;;5053929;28;20053;-60
2022/04/28 11:15:23;;;;;;;11.63;2.40;;;16.00;90.60;;;;;;5051904;28;20044;-60
2022/04/28 11:17:50;;;;;;;7.90;2.15;;;16.40;90.30;;;;;;5053024;28;20114;-62
2022/04/28 11:20:21;;;;;;;8.23;2.35;;;17.20;89.80;;;;;;5052808;28;20128;-62
2022/04/28 11:22:50;;;;;;;6.70;2.63;;;17.40;88.90;;;;;;5050908;28;20420;-62
2022/04/28 11:25:19;;;;;;;9.88;3.05;;;17.10;88.70;;;;;;5052110;28;20056;-62
2022/04/28 11:27:50;;;;;;;11.27;2.95;;;16.50;89.40;;;;;;5034764;28;20053;-62
2022/04/28 11:30:18;;;;;;;8.75;2.70;;;16.00;90.10;;;;;;5051958;28;20045;-61
2022/04/28 11:32:51;;;;;;;8.40;1.90;;;15.70;90.80;;;;;;5051068;28;20140;-61
2022/04/28 11:35:18;;;;;;;4.18;2.22;;;15.50;90.80;;;;;;5053290;28;20056;-61
2022/04/28 11:37:48;;;;;;;12.57;2.55;;;15.40;90.90;;;;;;5035178;28;20135;-62
2022/04/28 11:40:16;;;;;;;4.75;1.80;;;15.20;91.00;;;;;;5036282;28;20059;-62
2022/04/28 11:42:45;;;;;;;8.35;2.30;;;15.20;91.20;;;;;;5053067;28;20131;-62
2022/04/28 11:45:14;;;;;;;9.05;2.42;;;15.20;91.20;;;;;;5036919;28;20060;-61
2022/04/28 11:47:45;;;;;;;9.85;2.58;;;15.40;90.80;;;;;;5036728;28;20173;-61
2022/04/28 11:50:20;;;;;;;5.78;2.22;;;15.70;90.80;;;;;;5053706;28;20399;-61
2022/04/28 11:52:59;;;;;;;4.20;1.73;;;16.10;90.50;;;;;;5054434;28;20053;-61
2022/04/28 11:55:26;;;;;;;9.75;2.40;;;16.20;90.40;;;;;;5036406;28;20056;-62
2022/04/28 11:57:54;;;;;;;8.57;2.60;;;16.00;90.70;;;;;;5035948;28;20065;-61
2022/04/28 12:00:26;;;;;;;8.95;2.72;;;15.90;90.60;;;;;;5037174;28;20377;-61
2022/04/28 12:02:54;;;;;;;8.32;2.00;;;15.70;90.70;;;;;;5055565;28;20063;-62
2022/04/28 12:05:22;;;;;;;10.32;2.03;;;15.80;90.70;;;;;;5074081;28;20051;-61
2022/04/28 12:07:52;;;;;;;6.45;2.35;;;15.90;90.40;;;;;;5074019;28;20135;-61
2022/04/28 12:16:15;;;;;;;10.57;3.17;;;15.90;90.40;;;;;;4992687;28;20105;-62
2022/04/28 12:21:33;;;;;;;5.95;2.30;;;15.70;90.30;;;;;;5039008;28;20056;-63
2022/04/28 12:24:00;;;;;;;9.68;2.30;;;16.10;90.90;;;;;;5055317;28;20056;-62
2022/04/28 12:26:32;;;;;;;6.03;2.00;;;16.10;90.60;;;;;;5055778;28;20052;-61
2022/04/28 12:29:08;;;;;;;7.45;2.70;;;16.20;90.20;;;;;;5073664;28;20056;-62
2022/04/28 12:31:36;;;;;;;7.82;2.72;;;16.10;90.40;;;;;;5054893;28;20299;-62
2022/04/28 12:34:10;;;;;;;9.43;3.38;;;16.10;90.50;;;;;;5073355;28;20052;-62
2022/04/28 12:36:46;;;;;;;10.13;2.47;;;16.40;89.60;;;;;;5055857;28;20472;-62
2022/04/28 12:39:13;;;;;;;10.05;2.55;;;16.80;89.60;;;;;;5072927;28;20044;-61
2022/04/28 12:41:43;;;;;;;9.25;2.55;;;16.10;88.70;;;;;;5073356;28;20059;-61
2022/04/28 12:44:10;;;;;;;7.30;2.53;;;16.00;89.40;;;;;;5073015;28;20076;-61
2022/04/28 12:46:40;;;;;;;7.93;2.13;;;16.00;90.20;;;;;;5072798;28;20117;-61
2022/04/28 12:49:08;;;;;;;8.32;2.38;;;16.00;90.10;;;;;;5072930;28;20061;-61
2022/04/28 12:51:44;;;;;;;6.75;2.05;;;15.90;90.20;;;;;;5055081;28;20129;-61
2022/04/28 12:54:12;;;;;;;7.18;2.47;;;16.00;90.50;;;;;;5072556;28;20135;-62
2022/04/28 12:56:42;;;;;;;3.47;1.80;;;15.70;90.60;;;;;;5055579;28;20053;-62
2022/04/28 12:59:10;;;;;;;5.60;1.73;;;15.60;90.60;;;;;;5054765;28;20060;-62
2022/04/28 13:01:40;;;;;;;7.95;2.10;;;15.60;90.70;;;;;;5073040;28;20185;-62
2022/04/28 13:04:08;;;;;;;7.65;2.22;;;15.60;90.80;;;;;;5072812;28;20090;-62
2022/04/28 13:06:37;;;;;;;8.60;2.92;;;15.70;90.80;;;;;;5072455;28;20088;-61
2022/04/28 13:09:07;;;;;;;5.88;2.42;;;16.10;90.90;;;;;;5072975;28;20044;-60
2022/04/28 13:11:35;;;;;;;5.95;2.35;;;16.10;90.60;;;;;;5072848;28;20130;-62
2022/04/28 13:14:04;;;;;;;6.45;2.20;;;16.10;90.30;;;;;;5054519;28;20084;-62
2022/04/28 13:16:32;;;;;;;8.10;2.38;;;16.10;90.30;;;;;;5054935;28;20056;-61
2022/04/28 13:19:01;;;;;;;6.38;2.65;;;16.80;90.30;;;;;;5054794;28;20087;-60
2022/04/28 13:21:28;;;;;;;7.43;2.10;;;18.30;89.30;;;;;;5072185;28;20106;-61
2022/04/28 13:23:55;;;;;;;6.00;1.60;;;18.90;86.70;;;;;;5054921;28;20246;-62
2022/04/28 13:26:24;;;;;;;6.43;1.98;;;19.20;85.70;;;;;;5073045;28;20127;-62
2022/04/28 13:28:52;;;;;;;7.57;2.08;;;18.90;85.40;;;;;;5072231;28;20121;-61
2022/04/28 13:31:20;;;;;;;6.68;1.95;;;18.20;84.90;;;;;;5072826;28;20041;-62
2022/04/28 13:33:47;;;;;;;8.82;2.30;;;17.60;86.20;;;;;;5054479;28;20053;-61
2022/04/28 13:36:17;;;;;;;7.15;1.80;;;17.70;87.20;;;;;;5054452;28;20072;-62
2022/04/28 13:38:44;;;;;;;6.55;1.98;;;18.80;85.80;;;;;;5055239;28;20121;-61